sensor_id;sensor_type;location;lat;lon;timestamp;temperature;humidity
77496;SHT31;66600;48.378;9.948;2023-06-04T00:00:51;14.69;57.89
77496;SHT31;66600;48.378;9.948;2023-06-04T00:03:16;14.75;57.22
77496;SHT31;66600;48.378;9.948;2023-06-04T00:05:42;14.70;56.74
77496;SHT31;66600;48.378;9.948;2023-06-04T00:08:08;14.65;56.80
77496;SHT31;66600;48.378;9.948;2023-06-04T00:10:33;14.69;56.38
77496;SHT31;66600;48.378;9.948;2023-06-04T00:12:59;14.65;56.18
77496;SHT31;66600;48.378;9.948;2023-06-04T00:15:25;14.55;56.96
77496;SHT31;66600;48.378;9.948;2023-06-04T00:17:51;14.42;57.37
77496;SHT31;66600;48.378;9.948;2023-06-04T00:20:18;14.43;56.91
77496;SHT31;66600;48.378;9.948;2023-06-04T00:22:43;14.34;57.12
77496;SHT31;66600;48.378;9.948;2023-06-04T00:25:09;14.26;57.09
77496;SHT31;66600;48.378;9.948;2023-06-04T00:27:35;14.26;56.86
77496;SHT31;66600;48.378;9.948;2023-06-04T00:30:01;14.28;56.52
77496;SHT31;66600;48.378;9.948;2023-06-04T00:32:27;14.21;56.41
77496;SHT31;66600;48.378;9.948;2023-06-04T00:34:54;14.20;56.25
77496;SHT31;66600;48.378;9.948;2023-06-04T00:37:22;14.13;56.06
77496;SHT31;66600;48.378;9.948;2023-06-04T00:39:47;14.10;56.06
77496;SHT31;66600;48.378;9.948;2023-06-04T00:42:13;14.04;56.04
77496;SHT31;66600;48.378;9.948;2023-06-04T00:44:39;14.04;55.84
77496;SHT31;66600;48.378;9.948;2023-06-04T00:47:14;14.04;55.29
77496;SHT31;66600;48.378;9.948;2023-06-04T00:49:40;13.98;55.55
77496;SHT31;66600;48.378;9.948;2023-06-04T00:52:08;14.00;54.79
77496;SHT31;66600;48.378;9.948;2023-06-04T00:54:34;13.88;55.34
77496;SHT31;66600;48.378;9.948;2023-06-04T00:57:00;13.91;54.86
77496;SHT31;66600;48.378;9.948;2023-06-04T00:59:26;13.90;54.95
77496;SHT31;66600;48.378;9.948;2023-06-04T01:02:02;13.88;54.33
77496;SHT31;66600;48.378;9.948;2023-06-04T01:07:00;13.83;54.69
77496;SHT31;66600;48.378;9.948;2023-06-04T01:09:27;13.71;55.05
77496;SHT31;66600;48.378;9.948;2023-06-04T01:11:54;13.66;55.21
77496;SHT31;66600;48.378;9.948;2023-06-04T01:14:22;13.63;54.92
77496;SHT31;66600;48.378;9.948;2023-06-04T01:16:59;13.62;54.73
77496;SHT31;66600;48.378;9.948;2023-06-04T01:25:31;13.49;55.21
77496;SHT31;66600;48.378;9.948;2023-06-04T01:27:57;13.45;55.17
77496;SHT31;66600;48.378;9.948;2023-06-04T01:30:25;13.45;54.96
77496;SHT31;66600;48.378;9.948;2023-06-04T01:32:53;13.40;55.09
77496;SHT31;66600;48.378;9.948;2023-06-04T01:35:20;13.39;54.82
77496;SHT31;66600;48.378;9.948;2023-06-04T01:37:45;13.32;55.51
77496;SHT31;66600;48.378;9.948;2023-06-04T01:40:11;13.22;55.42
77496;SHT31;66600;48.378;9.948;2023-06-04T01:42:37;13.22;55.54
77496;SHT31;66600;48.378;9.948;2023-06-04T01:45:03;13.22;55.66
77496;SHT31;66600;48.378;9.948;2023-06-04T01:47:28;13.16;55.46
77496;SHT31;66600;48.378;9.948;2023-06-04T01:49:54;13.11;55.86
77496;SHT31;66600;48.378;9.948;2023-06-04T01:52:19;13.01;56.43
77496;SHT31;66600;48.378;9.948;2023-06-04T01:54:46;12.94;56.54
77496;SHT31;66600;48.378;9.948;2023-06-04T01:57:14;12.90;56.60
77496;SHT31;66600;48.378;9.948;2023-06-04T01:59:39;12.81;57.30
77496;SHT31;66600;48.378;9.948;2023-06-04T02:02:07;12.80;57.08
77496;SHT31;66600;48.378;9.948;2023-06-04T02:04:32;12.80;56.64
77496;SHT31;66600;48.378;9.948;2023-06-04T02:07:02;12.77;57.35
77496;SHT31;66600;48.378;9.948;2023-06-04T02:09:27;12.66;57.55
77496;SHT31;66600;48.378;9.948;2023-06-04T02:11:53;12.63;57.47
77496;SHT31;66600;48.378;9.948;2023-06-04T02:14:18;12.56;57.82
77496;SHT31;66600;48.378;9.948;2023-06-04T02:16:45;12.55;57.97
77496;SHT31;66600;48.378;9.948;2023-06-04T02:19:14;12.49;58.01
77496;SHT31;66600;48.378;9.948;2023-06-04T02:21:40;12.53;57.54
77496;SHT31;66600;48.378;9.948;2023-06-04T02:24:05;12.43;58.30
77496;SHT31;66600;48.378;9.948;2023-06-04T02:26:31;12.30;58.91
77496;SHT31;66600;48.378;9.948;2023-06-04T02:28:57;12.33;58.48
77496;SHT31;66600;48.378;9.948;2023-06-04T02:31:23;12.29;58.53
77496;SHT31;66600;48.378;9.948;2023-06-04T02:33:48;12.28;58.41
77496;SHT31;66600;48.378;9.948;2023-06-04T02:36:13;12.18;58.96
77496;SHT31;66600;48.378;9.948;2023-06-04T02:38:40;12.18;58.68
77496;SHT31;66600;48.378;9.948;2023-06-04T02:41:06;12.19;58.47
77496;SHT31;66600;48.378;9.948;2023-06-04T02:43:31;12.18;58.43
77496;SHT31;66600;48.378;9.948;2023-06-04T02:45:56;12.14;58.52
77496;SHT31;66600;48.378;9.948;2023-06-04T02:48:22;12.16;58.17
77496;SHT31;66600;48.378;9.948;2023-06-04T02:50:47;12.14;58.31
77496;SHT31;66600;48.378;9.948;2023-06-04T02:53:13;12.22;57.44
77496;SHT31;66600;48.378;9.948;2023-06-04T02:55:38;12.15;57.89
77496;SHT31;66600;48.378;9.948;2023-06-04T02:58:05;12.11;58.10
77496;SHT31;66600;48.378;9.948;2023-06-04T03:00:31;12.08;57.96
77496;SHT31;66600;48.378;9.948;2023-06-04T03:02:57;12.04;58.18
77496;SHT31;66600;48.378;9.948;2023-06-04T03:05:26;12.04;58.15
77496;SHT31;66600;48.378;9.948;2023-06-04T03:07:52;12.02;58.31
77496;SHT31;66600;48.378;9.948;2023-06-04T03:10:18;12.06;57.94
77496;SHT31;66600;48.378;9.948;2023-06-04T03:12:44;12.04;58.09
77496;SHT31;66600;48.378;9.948;2023-06-04T03:15:10;12.01;58.19
77496;SHT31;66600;48.378;9.948;2023-06-04T03:17:36;12.01;57.89
77496;SHT31;66600;48.378;9.948;2023-06-04T03:20:02;11.97;58.09
77496;SHT31;66600;48.378;9.948;2023-06-04T03:22:29;11.92;58.40
77496;SHT31;66600;48.378;9.948;2023-06-04T03:24:55;11.87;58.80
77496;SHT31;66600;48.378;9.948;2023-06-04T03:27:21;11.85;59.04
77496;SHT31;66600;48.378;9.948;2023-06-04T03:29:47;11.78;59.16
77496;SHT31;66600;48.378;9.948;2023-06-04T03:32:13;11.74;59.64
77496;SHT31;66600;48.378;9.948;2023-06-04T03:34:39;11.75;59.32
77496;SHT31;66600;48.378;9.948;2023-06-04T03:37:04;11.80;59.18
77496;SHT31;66600;48.378;9.948;2023-06-04T03:39:30;11.80;59.37
77496;SHT31;66600;48.378;9.948;2023-06-04T03:41:55;11.75;59.42
77496;SHT31;66600;48.378;9.948;2023-06-04T03:44:21;11.73;59.56
77496;SHT31;66600;48.378;9.948;2023-06-04T03:46:47;11.73;59.79
77496;SHT31;66600;48.378;9.948;2023-06-04T03:49:13;11.71;59.77
77496;SHT31;66600;48.378;9.948;2023-06-04T03:51:40;11.73;59.66
77496;SHT31;66600;48.378;9.948;2023-06-04T03:54:06;11.74;59.74
77496;SHT31;66600;48.378;9.948;2023-06-04T03:56:32;11.67;60.05
77496;SHT31;66600;48.378;9.948;2023-06-04T03:58:58;11.73;59.86
77496;SHT31;66600;48.378;9.948;2023-06-04T04:01:24;11.75;59.48
77496;SHT31;66600;48.378;9.948;2023-06-04T04:03:50;11.78;59.45
77496;SHT31;66600;48.378;9.948;2023-06-04T04:06:17;11.78;59.55
77496;SHT31;66600;48.378;9.948;2023-06-04T04:08:43;11.80;59.44
77496;SHT31;66600;48.378;9.948;2023-06-04T04:11:15;11.82;59.34
77496;SHT31;66600;48.378;9.948;2023-06-04T04:13:42;11.87;59.48
77496;SHT31;66600;48.378;9.948;2023-06-04T04:16:07;11.88;59.38
77496;SHT31;66600;48.378;9.948;2023-06-04T04:18:34;11.88;59.80
77496;SHT31;66600;48.378;9.948;2023-06-04T04:21:00;11.91;59.90
77496;SHT31;66600;48.378;9.948;2023-06-04T04:23:26;11.92;59.89
77496;SHT31;66600;48.378;9.948;2023-06-04T04:25:53;11.95;59.98
77496;SHT31;66600;48.378;9.948;2023-06-04T04:28:19;12.02;59.87
77496;SHT31;66600;48.378;9.948;2023-06-04T04:30:46;12.04;59.79
77496;SHT31;66600;48.378;9.948;2023-06-04T04:33:14;12.05;59.69
77496;SHT31;66600;48.378;9.948;2023-06-04T04:35:41;12.06;60.25
77496;SHT31;66600;48.378;9.948;2023-06-04T04:38:08;12.12;60.25
77496;SHT31;66600;48.378;9.948;2023-06-04T04:40:36;12.18;60.09
77496;SHT31;66600;48.378;9.948;2023-06-04T04:43:02;12.26;60.13
77496;SHT31;66600;48.378;9.948;2023-06-04T04:45:29;12.26;60.18
77496;SHT31;66600;48.378;9.948;2023-06-04T04:47:55;12.29;60.51
77496;SHT31;66600;48.378;9.948;2023-06-04T04:50:20;12.32;60.70
77496;SHT31;66600;48.378;9.948;2023-06-04T04:52:46;12.37;59.97
77496;SHT31;66600;48.378;9.948;2023-06-04T04:55:11;12.36;60.18
77496;SHT31;66600;48.378;9.948;2023-06-04T04:57:38;12.46;60.63
77496;SHT31;66600;48.378;9.948;2023-06-04T05:00:05;12.57;60.17
77496;SHT31;66600;48.378;9.948;2023-06-04T05:02:37;12.56;59.89
77496;SHT31;66600;48.378;9.948;2023-06-04T05:05:03;12.59;60.18
77496;SHT31;66600;48.378;9.948;2023-06-04T05:07:29;12.61;59.93
77496;SHT31;66600;48.378;9.948;2023-06-04T05:09:55;12.64;60.01
77496;SHT31;66600;48.378;9.948;2023-06-04T05:12:21;12.67;59.83
77496;SHT31;66600;48.378;9.948;2023-06-04T05:14:46;12.70;59.50
77496;SHT31;66600;48.378;9.948;2023-06-04T05:17:14;12.74;59.65
77496;SHT31;66600;48.378;9.948;2023-06-04T05:19:41;12.73;60.24
77496;SHT31;66600;48.378;9.948;2023-06-04T05:22:07;12.93;59.97
77496;SHT31;66600;48.378;9.948;2023-06-04T05:24:33;13.04;59.65
77496;SHT31;66600;48.378;9.948;2023-06-04T05:26:59;13.21;59.52
77496;SHT31;66600;48.378;9.948;2023-06-04T05:29:26;13.19;59.71
77496;SHT31;66600;48.378;9.948;2023-06-04T05:31:51;13.31;59.54
77496;SHT31;66600;48.378;9.948;2023-06-04T05:34:17;13.39;58.76
77496;SHT31;66600;48.378;9.948;2023-06-04T05:36:43;13.63;57.72
77496;SHT31;66600;48.378;9.948;2023-06-04T05:39:09;13.84;55.28
77496;SHT31;66600;48.378;9.948;2023-06-04T05:41:39;13.76;54.93
77496;SHT31;66600;48.378;9.948;2023-06-04T05:44:06;13.88;54.87
77496;SHT31;66600;48.378;9.948;2023-06-04T05:46:31;13.88;54.87
77496;SHT31;66600;48.378;9.948;2023-06-04T05:48:57;14.14;54.71
77496;SHT31;66600;48.378;9.948;2023-06-04T05:51:23;14.15;54.86
77496;SHT31;66600;48.378;9.948;2023-06-04T05:53:48;14.25;54.46
77496;SHT31;66600;48.378;9.948;2023-06-04T05:56:14;14.35;54.12
77496;SHT31;66600;48.378;9.948;2023-06-04T05:58:39;14.66;53.71
77496;SHT31;66600;48.378;9.948;2023-06-04T06:01:05;14.66;53.50
77496;SHT31;66600;48.378;9.948;2023-06-04T06:03:31;14.99;53.43
77496;SHT31;66600;48.378;9.948;2023-06-04T06:05:57;14.59;53.55
77496;SHT31;66600;48.378;9.948;2023-06-04T06:08:23;14.36;53.68
77496;SHT31;66600;48.378;9.948;2023-06-04T06:10:48;14.61;54.14
77496;SHT31;66600;48.378;9.948;2023-06-04T06:13:15;14.59;53.17
77496;SHT31;66600;48.378;9.948;2023-06-04T06:15:40;14.76;53.68
77496;SHT31;66600;48.378;9.948;2023-06-04T06:18:05;15.12;52.48
77496;SHT31;66600;48.378;9.948;2023-06-04T06:20:31;15.55;52.64
77496;SHT31;66600;48.378;9.948;2023-06-04T06:22:57;15.41;51.41
77496;SHT31;66600;48.378;9.948;2023-06-04T06:25:22;15.23;52.95
77496;SHT31;66600;48.378;9.948;2023-06-04T06:27:48;15.54;52.79
77496;SHT31;66600;48.378;9.948;2023-06-04T06:30:13;15.45;52.06
77496;SHT31;66600;48.378;9.948;2023-06-04T06:32:39;14.76;53.38
77496;SHT31;66600;48.378;9.948;2023-06-04T06:35:05;14.81;53.73
77496;SHT31;66600;48.378;9.948;2023-06-04T06:37:30;15.25;53.30
77496;SHT31;66600;48.378;9.948;2023-06-04T06:39:55;15.66;52.75
77496;SHT31;66600;48.378;9.948;2023-06-04T06:42:21;15.92;51.95
77496;SHT31;66600;48.378;9.948;2023-06-04T06:44:46;15.90;51.62
77496;SHT31;66600;48.378;9.948;2023-06-04T06:47:12;16.28;51.73
77496;SHT31;66600;48.378;9.948;2023-06-04T06:49:39;15.93;52.07
77496;SHT31;66600;48.378;9.948;2023-06-04T06:52:05;16.16;51.65
77496;SHT31;66600;48.378;9.948;2023-06-04T06:54:30;16.06;51.17
77496;SHT31;66600;48.378;9.948;2023-06-04T06:56:56;16.51;51.35
77496;SHT31;66600;48.378;9.948;2023-06-04T06:59:21;16.49;50.73
77496;SHT31;66600;48.378;9.948;2023-06-04T07:01:46;16.40;51.76
77496;SHT31;66600;48.378;9.948;2023-06-04T07:04:12;16.61;50.84
77496;SHT31;66600;48.378;9.948;2023-06-04T07:06:38;16.95;50.90
77496;SHT31;66600;48.378;9.948;2023-06-04T07:09:03;17.23;49.81
77496;SHT31;66600;48.378;9.948;2023-06-04T07:11:30;17.26;50.32
77496;SHT31;66600;48.378;9.948;2023-06-04T07:13:56;16.90;51.14
77496;SHT31;66600;48.378;9.948;2023-06-04T07:16:21;16.69;50.88
77496;SHT31;66600;48.378;9.948;2023-06-04T07:18:49;16.42;51.89
77496;SHT31;66600;48.378;9.948;2023-06-04T07:21:15;16.76;51.13
77496;SHT31;66600;48.378;9.948;2023-06-04T07:23:40;17.10;51.11
77496;SHT31;66600;48.378;9.948;2023-06-04T07:26:06;16.90;51.00
77496;SHT31;66600;48.378;9.948;2023-06-04T07:28:31;17.51;51.72
77496;SHT31;66600;48.378;9.948;2023-06-04T07:30:57;17.83;50.08
77496;SHT31;66600;48.378;9.948;2023-06-04T07:33:23;18.25;48.94
77496;SHT31;66600;48.378;9.948;2023-06-04T07:35:49;18.20;48.93
77496;SHT31;66600;48.378;9.948;2023-06-04T07:38:14;18.25;48.55
77496;SHT31;66600;48.378;9.948;2023-06-04T07:40:39;18.38;48.48
77496;SHT31;66600;48.378;9.948;2023-06-04T07:43:05;18.43;47.92
77496;SHT31;66600;48.378;9.948;2023-06-04T07:45:30;18.20;48.86
77496;SHT31;66600;48.378;9.948;2023-06-04T07:47:56;17.71;50.28
77496;SHT31;66600;48.378;9.948;2023-06-04T07:50:21;17.79;50.30
77496;SHT31;66600;48.378;9.948;2023-06-04T07:52:47;18.22;49.83
77496;SHT31;66600;48.378;9.948;2023-06-04T07:55:12;18.29;49.11
77496;SHT31;66600;48.378;9.948;2023-06-04T07:57:37;18.40;48.88
77496;SHT31;66600;48.378;9.948;2023-06-04T08:00:03;17.99;50.06
77496;SHT31;66600;48.378;9.948;2023-06-04T08:02:33;18.51;49.90
77496;SHT31;66600;48.378;9.948;2023-06-04T08:04:58;18.98;48.72
77496;SHT31;66600;48.378;9.948;2023-06-04T08:07:23;19.03;49.15
77496;SHT31;66600;48.378;9.948;2023-06-04T08:09:48;18.05;49.98
77496;SHT31;66600;48.378;9.948;2023-06-04T08:12:15;18.63;48.69
77496;SHT31;66600;48.378;9.948;2023-06-04T08:14:43;19.06;47.67
77496;SHT31;66600;48.378;9.948;2023-06-04T08:17:09;18.98;48.38
77496;SHT31;66600;48.378;9.948;2023-06-04T08:19:34;18.67;48.52
77496;SHT31;66600;48.378;9.948;2023-06-04T08:21:59;18.32;50.25
77496;SHT31;66600;48.378;9.948;2023-06-04T08:24:25;18.69;49.92
77496;SHT31;66600;48.378;9.948;2023-06-04T08:26:50;19.30;49.15
77496;SHT31;66600;48.378;9.948;2023-06-04T08:29:16;19.79;47.81
77496;SHT31;66600;48.378;9.948;2023-06-04T08:31:41;19.98;48.24
77496;SHT31;66600;48.378;9.948;2023-06-04T08:34:06;19.77;47.53
77496;SHT31;66600;48.378;9.948;2023-06-04T08:36:32;19.61;48.04
77496;SHT31;66600;48.378;9.948;2023-06-04T08:39:00;20.18;46.44
77496;SHT31;66600;48.378;9.948;2023-06-04T08:41:40;19.96;47.34
77496;SHT31;66600;48.378;9.948;2023-06-04T08:44:07;20.54;46.30
77496;SHT31;66600;48.378;9.948;2023-06-04T08:46:32;20.54;46.26
77496;SHT31;66600;48.378;9.948;2023-06-04T08:49:00;20.33;45.83
77496;SHT31;66600;48.378;9.948;2023-06-04T08:51:28;20.08;46.01
77496;SHT31;66600;48.378;9.948;2023-06-04T08:53:54;20.46;46.73
77496;SHT31;66600;48.378;9.948;2023-06-04T08:56:22;20.52;44.84
77496;SHT31;66600;48.378;9.948;2023-06-04T08:58:47;19.29;47.19
77496;SHT31;66600;48.378;9.948;2023-06-04T09:01:14;20.11;46.64
77496;SHT31;66600;48.378;9.948;2023-06-04T09:03:40;20.21;45.63
77496;SHT31;66600;48.378;9.948;2023-06-04T09:06:06;19.49;46.45
77496;SHT31;66600;48.378;9.948;2023-06-04T09:08:34;19.88;47.10
77496;SHT31;66600;48.378;9.948;2023-06-04T09:11:00;20.26;47.11
77496;SHT31;66600;48.378;9.948;2023-06-04T09:13:30;20.28;44.41
77496;SHT31;66600;48.378;9.948;2023-06-04T09:16:04;20.08;46.08
77496;SHT31;66600;48.378;9.948;2023-06-04T09:18:31;20.16;46.27
77496;SHT31;66600;48.378;9.948;2023-06-04T09:21:07;20.92;45.04
77496;SHT31;66600;48.378;9.948;2023-06-04T09:23:58;21.32;44.64
77496;SHT31;66600;48.378;9.948;2023-06-04T09:26:24;21.74;43.64
77496;SHT31;66600;48.378;9.948;2023-06-04T09:28:50;21.87;42.24
77496;SHT31;66600;48.378;9.948;2023-06-04T09:31:18;21.49;43.42
77496;SHT31;66600;48.378;9.948;2023-06-04T09:33:47;21.66;43.65
77496;SHT31;66600;48.378;9.948;2023-06-04T09:36:13;22.11;42.95
77496;SHT31;66600;48.378;9.948;2023-06-04T09:38:38;22.05;42.63
77496;SHT31;66600;48.378;9.948;2023-06-04T09:41:04;21.69;42.73
77496;SHT31;66600;48.378;9.948;2023-06-04T09:43:31;22.11;43.17
77496;SHT31;66600;48.378;9.948;2023-06-04T09:46:14;21.73;42.80
77496;SHT31;66600;48.378;9.948;2023-06-04T09:48:40;21.43;43.60
77496;SHT31;66600;48.378;9.948;2023-06-04T09:51:10;21.28;43.39
77496;SHT31;66600;48.378;9.948;2023-06-04T09:53:36;21.07;44.50
77496;SHT31;66600;48.378;9.948;2023-06-04T09:56:03;20.90;45.09
77496;SHT31;66600;48.378;9.948;2023-06-04T09:58:29;21.26;44.26
77496;SHT31;66600;48.378;9.948;2023-06-04T10:00:56;22.00;42.63
77496;SHT31;66600;48.378;9.948;2023-06-04T10:03:24;20.98;44.64
77496;SHT31;66600;48.378;9.948;2023-06-04T10:05:52;21.35;44.10
77496;SHT31;66600;48.378;9.948;2023-06-04T10:08:18;21.21;43.33
77496;SHT31;66600;48.378;9.948;2023-06-04T10:10:45;21.73;43.01
77496;SHT31;66600;48.378;9.948;2023-06-04T10:13:17;22.28;41.75
77496;SHT31;66600;48.378;9.948;2023-06-04T10:15:43;22.72;40.49
77496;SHT31;66600;48.378;9.948;2023-06-04T10:18:09;22.29;42.16
77496;SHT31;66600;48.378;9.948;2023-06-04T10:20:35;23.13;40.68
77496;SHT31;66600;48.378;9.948;2023-06-04T10:23:02;23.72;40.41
77496;SHT31;66600;48.378;9.948;2023-06-04T10:25:30;23.75;38.35
77496;SHT31;66600;48.378;9.948;2023-06-04T10:27:56;24.20;39.50
77496;SHT31;66600;48.378;9.948;2023-06-04T10:30:21;24.43;37.92
77496;SHT31;66600;48.378;9.948;2023-06-04T10:32:47;24.53;37.10
77496;SHT31;66600;48.378;9.948;2023-06-04T10:35:13;24.50;37.54
77496;SHT31;66600;48.378;9.948;2023-06-04T10:37:39;24.31;38.20
77496;SHT31;66600;48.378;9.948;2023-06-04T10:40:05;22.49;40.81
77496;SHT31;66600;48.378;9.948;2023-06-04T10:42:39;23.07;39.66
77496;SHT31;66600;48.378;9.948;2023-06-04T10:45:05;23.79;40.13
77496;SHT31;66600;48.378;9.948;2023-06-04T10:47:30;24.20;39.62
77496;SHT31;66600;48.378;9.948;2023-06-04T10:50:10;24.26;38.08
77496;SHT31;66600;48.378;9.948;2023-06-04T10:52:36;23.31;39.91
77496;SHT31;66600;48.378;9.948;2023-06-04T10:55:06;24.20;38.49
77496;SHT31;66600;48.378;9.948;2023-06-04T10:57:32;24.07;38.11
77496;SHT31;66600;48.378;9.948;2023-06-04T10:59:59;23.44;38.90
77496;SHT31;66600;48.378;9.948;2023-06-04T11:02:25;23.18;38.67
77496;SHT31;66600;48.378;9.948;2023-06-04T11:05:04;23.41;38.94
77496;SHT31;66600;48.378;9.948;2023-06-04T11:07:45;22.69;39.27
77496;SHT31;66600;48.378;9.948;2023-06-04T11:10:11;23.06;39.26
77496;SHT31;66600;48.378;9.948;2023-06-04T11:12:47;24.18;36.60
77496;SHT31;66600;48.378;9.948;2023-06-04T11:15:16;24.82;36.71
77496;SHT31;66600;48.378;9.948;2023-06-04T11:17:52;25.41;34.93
77496;SHT31;66600;48.378;9.948;2023-06-04T11:20:19;25.70;34.00
77496;SHT31;66600;48.378;9.948;2023-06-04T11:22:55;25.58;35.06
77496;SHT31;66600;48.378;9.948;2023-06-04T11:25:24;23.51;37.55
77496;SHT31;66600;48.378;9.948;2023-06-04T11:27:52;24.27;36.75
77496;SHT31;66600;48.378;9.948;2023-06-04T11:30:17;24.98;36.33
77496;SHT31;66600;48.378;9.948;2023-06-04T11:32:42;25.30;34.94
77496;SHT31;66600;48.378;9.948;2023-06-04T11:35:08;25.95;33.58
77496;SHT31;66600;48.378;9.948;2023-06-04T11:37:36;26.76;33.80
77496;SHT31;66600;48.378;9.948;2023-06-04T11:40:01;26.54;33.47
77496;SHT31;66600;48.378;9.948;2023-06-04T11:42:27;26.15;32.78
77496;SHT31;66600;48.378;9.948;2023-06-04T11:44:58;25.71;33.80
77496;SHT31;66600;48.378;9.948;2023-06-04T11:47:24;25.43;33.61
77496;SHT31;66600;48.378;9.948;2023-06-04T11:49:56;25.08;33.85
77496;SHT31;66600;48.378;9.948;2023-06-04T11:52:22;24.13;35.65
77496;SHT31;66600;48.378;9.948;2023-06-04T11:54:48;24.00;36.90
77496;SHT31;66600;48.378;9.948;2023-06-04T11:57:13;22.96;37.10
77496;SHT31;66600;48.378;9.948;2023-06-04T11:59:39;22.82;38.40
77496;SHT31;66600;48.378;9.948;2023-06-04T12:02:06;23.00;37.90
77496;SHT31;66600;48.378;9.948;2023-06-04T12:04:32;22.60;37.53
77496;SHT31;66600;48.378;9.948;2023-06-04T12:06:59;22.65;38.53
77496;SHT31;66600;48.378;9.948;2023-06-04T12:09:31;23.62;35.59
77496;SHT31;66600;48.378;9.948;2023-06-04T12:12:04;24.31;34.38
77496;SHT31;66600;48.378;9.948;2023-06-04T12:14:30;23.78;34.92
77496;SHT31;66600;48.378;9.948;2023-06-04T12:16:57;23.41;36.20
77496;SHT31;66600;48.378;9.948;2023-06-04T12:19:23;24.64;35.35
77496;SHT31;66600;48.378;9.948;2023-06-04T12:22:03;23.72;36.11
77496;SHT31;66600;48.378;9.948;2023-06-04T12:24:30;24.53;35.34
77496;SHT31;66600;48.378;9.948;2023-06-04T12:27:06;24.99;35.02
77496;SHT31;66600;48.378;9.948;2023-06-04T12:29:32;25.29;32.69
77496;SHT31;66600;48.378;9.948;2023-06-04T12:32:06;25.88;32.90
77496;SHT31;66600;48.378;9.948;2023-06-04T12:34:36;25.41;33.85
77496;SHT31;66600;48.378;9.948;2023-06-04T12:37:02;26.01;32.61
77496;SHT31;66600;48.378;9.948;2023-06-04T12:39:35;25.51;33.29
77496;SHT31;66600;48.378;9.948;2023-06-04T12:42:02;24.55;34.81
77496;SHT31;66600;48.378;9.948;2023-06-04T12:44:28;25.08;34.57
77496;SHT31;66600;48.378;9.948;2023-06-04T12:46:53;25.80;33.69
77496;SHT31;66600;48.378;9.948;2023-06-04T12:49:19;24.93;32.19
77496;SHT31;66600;48.378;9.948;2023-06-04T12:51:44;25.56;32.21
77496;SHT31;66600;48.378;9.948;2023-06-04T12:54:09;24.55;34.16
77496;SHT31;66600;48.378;9.948;2023-06-04T12:56:35;24.30;34.06
77496;SHT31;66600;48.378;9.948;2023-06-04T12:59:01;24.86;34.23
77496;SHT31;66600;48.378;9.948;2023-06-04T13:01:27;25.44;33.52
77496;SHT31;66600;48.378;9.948;2023-06-04T13:03:52;25.61;32.50
77496;SHT31;66600;48.378;9.948;2023-06-04T13:06:18;25.36;31.87
77496;SHT31;66600;48.378;9.948;2023-06-04T13:08:43;25.02;32.71
77496;SHT31;66600;48.378;9.948;2023-06-04T13:11:08;25.95;32.38
77496;SHT31;66600;48.378;9.948;2023-06-04T13:13:35;26.70;32.37
77496;SHT31;66600;48.378;9.948;2023-06-04T13:16:01;27.57;31.18
77496;SHT31;66600;48.378;9.948;2023-06-04T13:18:27;28.04;30.99
77496;SHT31;66600;48.378;9.948;2023-06-04T13:20:52;27.41;30.54
77496;SHT31;66600;48.378;9.948;2023-06-04T13:23:17;26.30;31.05
77496;SHT31;66600;48.378;9.948;2023-06-04T13:25:43;26.63;31.83
77496;SHT31;66600;48.378;9.948;2023-06-04T13:28:08;27.18;30.27
77496;SHT31;66600;48.378;9.948;2023-06-04T13:30:37;27.21;30.15
77496;SHT31;66600;48.378;9.948;2023-06-04T13:33:03;28.31;28.46
77496;SHT31;66600;48.378;9.948;2023-06-04T13:35:29;28.77;28.34
77496;SHT31;66600;48.378;9.948;2023-06-04T13:37:54;27.56;29.60
77496;SHT31;66600;48.378;9.948;2023-06-04T13:40:20;25.96;31.98
77496;SHT31;66600;48.378;9.948;2023-06-04T13:42:46;26.23;31.25
77496;SHT31;66600;48.378;9.948;2023-06-04T13:45:11;27.47;30.91
77496;SHT31;66600;48.378;9.948;2023-06-04T13:47:36;27.80;30.13
77496;SHT31;66600;48.378;9.948;2023-06-04T13:50:05;27.18;30.16
77496;SHT31;66600;48.378;9.948;2023-06-04T13:52:31;27.49;28.83
77496;SHT31;66600;48.378;9.948;2023-06-04T13:54:56;27.35;29.40
77496;SHT31;66600;48.378;9.948;2023-06-04T13:57:24;28.49;28.84
77496;SHT31;66600;48.378;9.948;2023-06-04T13:59:50;28.44;28.79
77496;SHT31;66600;48.378;9.948;2023-06-04T14:02:15;29.61;26.92
77496;SHT31;66600;48.378;9.948;2023-06-04T14:04:40;29.35;26.69
77496;SHT31;66600;48.378;9.948;2023-06-04T14:07:06;27.84;28.24
77496;SHT31;66600;48.378;9.948;2023-06-04T14:09:31;28.62;27.07
77496;SHT31;66600;48.378;9.948;2023-06-04T14:11:57;28.87;27.88
77496;SHT31;66600;48.378;9.948;2023-06-04T14:14:22;29.29;27.29
77496;SHT31;66600;48.378;9.948;2023-06-04T14:16:48;27.15;29.56
77496;SHT31;66600;48.378;9.948;2023-06-04T14:19:14;25.05;32.39
77496;SHT31;66600;48.378;9.948;2023-06-04T14:21:40;25.10;32.58
77496;SHT31;66600;48.378;9.948;2023-06-04T14:24:05;24.76;33.83
77496;SHT31;66600;48.378;9.948;2023-06-04T14:26:31;23.45;34.26
77496;SHT31;66600;48.378;9.948;2023-06-04T14:28:57;25.94;31.93
77496;SHT31;66600;48.378;9.948;2023-06-04T14:31:22;26.32;29.93
77496;SHT31;66600;48.378;9.948;2023-06-04T14:33:48;26.97;29.76
77496;SHT31;66600;48.378;9.948;2023-06-04T14:36:13;26.99;29.41
77496;SHT31;66600;48.378;9.948;2023-06-04T14:38:39;28.44;27.91
77496;SHT31;66600;48.378;9.948;2023-06-04T14:41:04;29.97;25.82
77496;SHT31;66600;48.378;9.948;2023-06-04T14:43:30;28.12;28.32
77496;SHT31;66600;48.378;9.948;2023-06-04T14:45:55;26.81;29.17
77496;SHT31;66600;48.378;9.948;2023-06-04T14:48:20;27.83;28.95
77496;SHT31;66600;48.378;9.948;2023-06-04T14:50:46;28.44;27.81
77496;SHT31;66600;48.378;9.948;2023-06-04T14:53:12;28.08;27.44
77496;SHT31;66600;48.378;9.948;2023-06-04T14:55:37;29.92;25.56
77496;SHT31;66600;48.378;9.948;2023-06-04T14:58:03;28.73;28.17
77496;SHT31;66600;48.378;9.948;2023-06-04T15:00:28;30.06;26.24
77496;SHT31;66600;48.378;9.948;2023-06-04T15:02:54;31.09;25.18
77496;SHT31;66600;48.378;9.948;2023-06-04T15:05:19;32.16;23.60
77496;SHT31;66600;48.378;9.948;2023-06-04T15:07:45;32.27;22.89
77496;SHT31;66600;48.378;9.948;2023-06-04T15:10:10;27.79;27.81
77496;SHT31;66600;48.378;9.948;2023-06-04T15:12:35;27.28;28.55
77496;SHT31;66600;48.378;9.948;2023-06-04T15:15:06;26.83;29.82
77496;SHT31;66600;48.378;9.948;2023-06-04T15:17:31;27.01;29.56
77496;SHT31;66600;48.378;9.948;2023-06-04T15:19:57;27.79;28.68
77496;SHT31;66600;48.378;9.948;2023-06-04T15:22:22;29.59;25.60
77496;SHT31;66600;48.378;9.948;2023-06-04T15:24:47;28.59;25.93
77496;SHT31;66600;48.378;9.948;2023-06-04T15:27:13;29.70;25.10
77496;SHT31;66600;48.378;9.948;2023-06-04T15:29:38;29.76;25.15
77496;SHT31;66600;48.378;9.948;2023-06-04T15:32:04;29.17;25.64
77496;SHT31;66600;48.378;9.948;2023-06-04T15:34:29;30.86;23.95